• Join FlightAware (Why Join?)
  • Login
  • US Flag 
Rudolph Flight #1: Arrived! 
02:03PM EST


 

Airport Tracker/Info


-or-


 

Live Flight TrackerFlight Track Log ✈ LOT396 ✈ 30-Jun-2013 ✈ EDDF / FRA - EPWA / WAW

Flight Track Log - Related Links

Times and Time Zones

All times are in EDT time to prevent confusion due to time zone crossing. See the LOT396 flight status page for this flight to view local times or setup timezone preferences in your user account.

Time Position Orientation Groundspeed Altitude Reporting Facility
EDT Latitude Longitude Course Direction KTS MPH feet Rate Location/Type
12:08PM 50.1790 9.2015 70° East  Level Estimated
12:09PM 50.2165 9.3667 70° East  Level Estimated
12:10PM 50.2539 9.5322 71° East  Level Estimated
12:11PM 50.2910 9.6980 71° East  Level Estimated
12:12PM 50.3278 9.8640 71° East  Level Estimated
12:13PM 50.3644 10.0303 71° East  Level Estimated
12:14PM 50.4008 10.1968 71° East  Level Estimated
12:15PM 50.4370 10.3636 71° East  Level Estimated
12:16PM 50.4729 10.5306 71° East  Level Estimated
12:17PM 50.5085 10.6979 71° East  Level Estimated
12:18PM 50.5439 10.8655 72° East  Level Estimated
12:19PM 50.5791 11.0333 72° East  Level Estimated
12:20PM 50.6141 11.2013 72° East  Level Estimated
12:21PM 50.6488 11.3696 72° East  Level Estimated
12:22PM 50.6832 11.5381 72° East  Level Estimated
12:23PM 50.7174 11.7069 72° East  Level Estimated
12:24PM 50.7514 11.8760 72° East  Level Estimated
12:25PM 50.7851 12.0452 72° East  Level Estimated
12:26PM 50.8186 12.2148 73° East  Level Estimated
12:27PM 50.8518 12.3845 73° East  Level Estimated
12:28PM 50.8848 12.5545 73° East  Level Estimated
12:29PM 50.9175 12.7248 73° East  Level Estimated
12:30PM 50.9500 12.8953 73° East  Level Estimated
12:31PM 50.9823 13.0660 73° East  Level Estimated
12:32PM 51.0143 13.2370 73° East  Level Estimated
12:33PM 51.0460 13.4081 74° East  Level Estimated
12:34PM 51.0775 13.5796 74° East  Level Estimated
12:35PM 51.1087 13.7512 74° East  Level Estimated
12:36PM 51.1397 13.9231 74° East  Level Estimated
12:37PM 51.1705 14.0953 74° East  Level Estimated
12:38PM 51.2010 14.2676 74° East  Level Estimated
12:39PM 51.2312 14.4402 74° East  Level Estimated
12:40PM 51.2612 14.6130 74° East  Level Estimated
12:41PM 51.2909 14.7860 75° East  Level Estimated
12:42PM 51.3204 14.9593 75° East  Level Estimated
12:43PM 51.3496 15.1327 75° East  Level Estimated
12:44PM 51.3785 15.3064 75° East  Level Estimated
12:45PM 51.4072 15.4803 75° East  Level Estimated
12:46PM 51.4356 15.6545 75° East  Level Estimated
12:47PM 51.4638 15.8288 75° East  Level Estimated
12:48PM 51.4917 16.0034 76° East  Level Estimated
12:49PM 51.5194 16.1781 76° East  Level Estimated
12:50PM 51.5468 16.3531 76° East  Level Estimated
12:51PM 51.5740 16.5283 76° East  Level Estimated
12:52PM 51.6008 16.7037 76° East  Level Estimated
12:53PM 51.6274 16.8793 76° East  Level Estimated
12:54PM 51.6538 17.0551 76° East  Level Estimated
12:55PM 51.6799 17.2311 76° East  Level Estimated
12:56PM 51.7057 17.4074 77° East  Level Estimated
12:57PM 51.7313 17.5838 77° East  Level Estimated
12:58PM 51.7566 17.7604 77° East  Level Estimated
12:59PM 51.7816 17.9372 77° East  Level Estimated
01:00PM 51.8064 18.1142 77° East  Level Estimated
01:01PM 51.8309 18.2915 77° East  Level Estimated
01:02PM 51.8552 18.4688 77° East  Level Estimated
01:03PM 51.8791 18.6464 78° East  Level Estimated
01:04PM 51.9028 18.8242 78° East  Level Estimated
01:05PM 51.9263 19.0022 78° East  Level Estimated
01:06PM 51.9495 19.1803 78° East  Level Estimated
01:07PM 51.9724 19.3587 78° East  Level Estimated
01:08PM 51.9950 19.5372 78° East  Level Estimated
01:09PM 52.0173 19.7159 78° East  Level Estimated
01:10PM 52.0394 19.8947 79° East  Level Estimated
01:11PM 52.0612 20.0738 79° East  Level Estimated
01:12PM 52.0828 20.2530 79° East  Level Estimated
01:13PM 52.1041 20.4324 79° East  Level Estimated
01:14PM 52.1251 20.6119 79° East  Level Estimated
01:15PM 52.1458 20.7917 79° East  Level Estimated
01:16PM 52.1657 20.9671 79° East  Level Estimated
01:17PM 52.1657 20.9671 90° East  Level Estimated
01:18PM 52.1657 20.9671 90° East  Level Estimated
01:19PM 52.1657 20.9671 90° East  Level Estimated
01:20PM 52.1657 20.9671 90° East  Level Estimated
01:21PM 52.1657 20.9671 90° East  Level Estimated
01:22PM 52.1657 20.9671 90° East  Level Estimated
01:23PM 52.1657 20.9671 90° East  Level Estimated
01:24PM 52.1657 20.9671 90° East  Level Estimated
01:25PM 52.1657 20.9671 90° East  Level Estimated
01:26PM 52.1657 20.9671 90° East  Level Estimated
01:27PM 52.1657 20.9671 90° East  Level Estimated
01:28PM 52.1657 20.9671 90° East  Level Estimated
01:29PM 52.1657 20.9671 90° East  Level Estimated
01:30PM 52.1657 20.9671 90° East  Level Estimated
01:31PM 52.1657 20.9671 90° East  Level Estimated
01:32PM 52.1657 20.9671 90° East  Level Estimated